Time;durP1;ratioP1;P1;durP2;ratioP2;P2;SDS_P1;SDS_P2;PMS_P1;PMS_P2;Temp;Humidity;BMP_temperature;BMP_pressure;BME280_temperature;BME280_humidity;BME280_pressure;Samples;Min_cycle;Max_cycle;Signal;HPM_P1;HPM_P2
2023/11/06 00:01:08;;;;;;;1.40;0.77;;;11.90;99.90;;;;;;4997363;28;20214;-90
2023/11/06 00:03:33;;;;;;;0.30;0.30;;;11.90;99.90;;;;;;4997145;28;20194;-90
2023/11/06 00:05:59;;;;;;;7.40;0.70;;;11.90;99.90;;;;;;4997774;28;20197;-90
2023/11/06 00:08:26;;;;;;;4.43;1.97;;;11.90;99.90;;;;;;5012738;28;20260;-90
2023/11/06 00:10:53;;;;;;;1.67;0.77;;;11.90;99.90;;;;;;5029728;28;20263;-91
2023/11/06 00:13:19;;;;;;;0.57;0.50;;;11.90;99.90;;;;;;5028690;28;20219;-90
2023/11/06 00:15:47;;;;;;;5.87;0.50;;;11.80;99.90;;;;;;5028433;28;20205;-92
2023/11/06 00:18:13;;;;;;;1.37;0.40;;;11.70;99.90;;;;;;4996804;28;20202;-91
2023/11/06 00:20:39;;;;;;;0.20;0.20;;;11.70;99.90;;;;;;4997653;28;20205;-90
2023/11/06 00:23:08;;;;;;;1.23;0.50;;;11.60;99.90;;;;;;4996998;28;20271;-90
2023/11/06 00:25:33;;;;;;;0.93;0.77;;;11.60;99.90;;;;;;4995893;28;20245;-90
2023/11/06 00:27:59;;;;;;;3.33;1.00;;;11.60;99.90;;;;;;4994548;28;20213;-90
2023/11/06 00:30:28;;;;;;;1.50;0.80;;;11.60;99.90;;;;;;5027626;28;20241;-91
2023/11/06 00:32:54;;;;;;;17.33;1.07;;;11.60;99.90;;;;;;5011839;28;20641;-90
2023/11/06 00:35:20;;;;;;;3.73;0.97;;;11.60;99.90;;;;;;4996571;28;20627;-90
2023/11/06 00:37:45;;;;;;;1.07;0.50;;;11.60;99.90;;;;;;4996608;28;20309;-90
2023/11/06 00:40:11;;;;;;;0.67;0.67;;;11.60;99.90;;;;;;5012638;28;20240;-91
2023/11/06 00:42:38;;;;;;;0.53;0.43;;;11.50;99.90;;;;;;5012673;28;20197;-91
2023/11/06 00:45:04;;;;;;;1.20;0.47;;;11.50;99.90;;;;;;4997017;28;20179;-91
2023/11/06 00:47:30;;;;;;;0.73;0.63;;;11.40;99.90;;;;;;5011473;28;20236;-90
2023/11/06 00:49:56;;;;;;;0.67;0.67;;;11.40;99.90;;;;;;5029433;28;20209;-90
2023/11/06 00:52:22;;;;;;;0.40;0.40;;;11.30;99.90;;;;;;5011671;28;20211;-91
2023/11/06 00:54:47;;;;;;;0.70;0.70;;;11.20;99.90;;;;;;4996436;28;20650;-90
2023/11/06 00:57:14;;;;;;;1.07;1.07;;;11.20;99.90;;;;;;4996354;28;20231;-90
2023/11/06 00:59:39;;;;;;;0.60;0.60;;;11.20;99.90;;;;;;5028380;28;20559;-90
2023/11/06 01:02:05;;;;;;;1.27;0.10;;;11.20;99.90;;;;;;5012971;28;20275;-91
2023/11/06 01:04:31;;;;;;;0.30;0.30;;;11.20;99.90;;;;;;4995650;28;20215;-90
2023/11/06 01:06:57;;;;;;;0.40;0.40;;;11.20;99.90;;;;;;5012178;28;20225;-90
2023/11/06 01:09:24;;;;;;;0.50;0.50;;;11.20;99.90;;;;;;5013617;28;20228;-91
2023/11/06 01:11:50;;;;;;;0.80;0.80;;;11.20;99.90;;;;;;4995473;28;20270;-90
2023/11/06 01:14:16;;;;;;;1.77;0.60;;;11.20;99.90;;;;;;5028528;28;20300;-91
2023/11/06 01:16:42;;;;;;;0.60;0.60;;;11.20;99.90;;;;;;5035924;28;20238;-90
2023/11/06 01:19:08;;;;;;;1.17;1.17;;;11.20;99.90;;;;;;5028555;28;20233;-91
2023/11/06 01:21:34;;;;;;;1.40;0.83;;;11.20;99.90;;;;;;5009877;28;20190;-90
2023/11/06 01:24:00;;;;;;;1.17;1.07;;;11.30;99.90;;;;;;5012357;28;20250;-90
2023/11/06 01:26:26;;;;;;;1.63;0.70;;;11.30;99.90;;;;;;4995737;28;20256;-91
2023/11/06 01:28:52;;;;;;;0.63;0.60;;;11.30;99.90;;;;;;5029196;28;20348;-90
2023/11/06 01:31:18;;;;;;;0.63;0.63;;;11.20;99.90;;;;;;4996221;28;20264;-91
2023/11/06 01:33:43;;;;;;;1.30;1.20;;;11.20;99.90;;;;;;4994459;28;20195;-90
2023/11/06 01:36:10;;;;;;;2.13;1.10;;;11.10;99.90;;;;;;5013638;28;20189;-90
2023/11/06 01:38:39;;;;;;;0.53;0.53;;;11.00;99.90;;;;;;5015402;28;20592;-90
2023/11/06 01:41:05;;;;;;;0.30;0.30;;;10.80;99.90;;;;;;5017943;28;20263;-90
2023/11/06 01:43:31;;;;;;;0.40;0.30;;;10.80;99.90;;;;;;5015971;28;20210;-90
2023/11/06 01:45:57;;;;;;;6.47;0.73;;;10.70;99.90;;;;;;4999407;28;20362;-90
2023/11/06 01:48:27;;;;;;;1.20;1.10;;;10.60;99.90;;;;;;5015786;28;20292;-90
2023/11/06 01:50:53;;;;;;;0.47;0.37;;;10.60;99.90;;;;;;5031807;28;20213;-91
2023/11/06 01:53:19;;;;;;;1.33;0.50;;;10.50;99.90;;;;;;5032147;28;20223;-90
2023/11/06 01:55:46;;;;;;;1.70;0.50;;;10.50;99.90;;;;;;5015098;28;20293;-90
2023/11/06 01:58:14;;;;;;;2.77;1.27;;;10.50;99.90;;;;;;5030311;28;20218;-90
2023/11/06 02:00:42;;;;;;;0.50;0.50;;;10.40;99.90;;;;;;5031530;28;20178;-90
2023/11/06 02:03:08;;;;;;;3.30;1.80;;;10.40;99.90;;;;;;5016836;28;20692;-90
2023/11/06 02:05:36;;;;;;;0.97;0.70;;;10.40;99.90;;;;;;5016523;28;20209;-91
2023/11/06 02:08:02;;;;;;;1.43;0.70;;;10.30;99.90;;;;;;5031282;28;20366;-91
2023/11/06 02:10:29;;;;;;;0.33;0.33;;;10.30;99.90;;;;;;5032615;28;20230;-90
2023/11/06 02:12:54;;;;;;;0.43;0.43;;;10.30;99.90;;;;;;4998582;28;20284;-90
2023/11/06 02:15:20;;;;;;;0.20;0.20;;;10.30;99.90;;;;;;5015766;28;20616;-90
2023/11/06 02:17:46;;;;;;;0.10;0.10;;;10.30;99.90;;;;;;4999315;28;20218;-90
2023/11/06 02:20:12;;;;;;;0.43;0.43;;;10.30;99.90;;;;;;5014823;28;20237;-90
2023/11/06 02:22:44;;;;;;;0.37;0.37;;;10.30;99.90;;;;;;5038540;28;20222;-91
2023/11/06 02:25:10;;;;;;;0.97;0.67;;;10.30;99.90;;;;;;5031633;28;20214;-90
2023/11/06 02:27:37;;;;;;;1.00;0.40;;;10.40;99.90;;;;;;5014755;28;20646;-90
2023/11/06 02:30:03;;;;;;;0.20;0.20;;;10.40;99.90;;;;;;4999652;28;20238;-90
2023/11/06 02:32:30;;;;;;;0.20;0.20;;;10.40;99.90;;;;;;4998595;28;20423;-91
2023/11/06 02:34:56;;;;;;;0.20;0.20;;;10.40;99.90;;;;;;4998986;28;20210;-90
2023/11/06 02:37:23;;;;;;;1.60;1.30;;;10.40;99.90;;;;;;4999904;28;20229;-91
2023/11/06 02:39:49;;;;;;;0.20;0.20;;;10.30;99.90;;;;;;5023991;28;20314;-90
2023/11/06 02:42:15;;;;;;;0.50;0.50;;;10.30;99.90;;;;;;4999246;28;20277;-90
2023/11/06 02:44:41;;;;;;;0.40;0.40;;;10.30;99.90;;;;;;5016015;28;20222;-90
2023/11/06 02:47:09;;;;;;;2.80;1.67;;;10.30;99.90;;;;;;5006872;28;20245;-90
2023/11/06 02:49:35;;;;;;;0.20;0.20;;;10.30;99.90;;;;;;4999025;28;20206;-90
2023/11/06 02:52:01;;;;;;;0.97;0.97;;;10.30;99.90;;;;;;5013744;28;20211;-90
2023/11/06 02:54:26;;;;;;;0.67;0.67;;;10.30;99.90;;;;;;5014899;28;20527;-91
2023/11/06 02:56:52;;;;;;;3.90;0.90;;;10.30;99.90;;;;;;5031877;28;20251;-90
2023/11/06 02:59:19;;;;;;;2.83;1.23;;;10.40;99.90;;;;;;5015068;28;20233;-90
2023/11/06 03:01:44;;;;;;;0.20;0.20;;;10.30;99.90;;;;;;4998299;28;20702;-90
2023/11/06 03:04:14;;;;;;;0.87;0.40;;;10.30;99.90;;;;;;5015686;28;20218;-90
2023/11/06 03:06:40;;;;;;;1.10;0.40;;;10.40;99.90;;;;;;5032137;28;20646;-90
2023/11/06 03:09:09;;;;;;;1.23;0.90;;;10.40;99.90;;;;;;5031849;28;20207;-90
2023/11/06 03:11:38;;;;;;;0.67;0.67;;;10.40;99.90;;;;;;4999215;28;20217;-90
2023/11/06 03:14:05;;;;;;;0.37;0.37;;;10.30;99.90;;;;;;5014966;28;20226;-90
2023/11/06 03:16:38;;;;;;;2.67;0.90;;;10.30;99.90;;;;;;5031373;28;20592;-90
2023/11/06 03:19:05;;;;;;;0.60;0.60;;;10.30;99.90;;;;;;5013453;28;20704;-90
2023/11/06 03:21:34;;;;;;;0.40;0.40;;;10.30;99.90;;;;;;4998540;28;20191;-90
2023/11/06 03:24:00;;;;;;;1.13;0.60;;;10.30;99.90;;;;;;5015730;28;20217;-90
2023/11/06 03:26:25;;;;;;;0.57;0.57;;;10.30;99.90;;;;;;5030257;28;20215;-90
2023/11/06 03:28:51;;;;;;;0.40;0.40;;;10.30;99.90;;;;;;5014526;28;20230;-90
2023/11/06 03:31:17;;;;;;;1.37;1.27;;;10.30;99.90;;;;;;5030800;28;20220;-90
2023/11/06 03:33:43;;;;;;;7.13;1.17;;;10.30;99.90;;;;;;5016089;28;20199;-90
2023/11/06 03:36:09;;;;;;;0.50;0.50;;;10.30;99.90;;;;;;5014504;28;20179;-90
2023/11/06 03:38:35;;;;;;;0.53;0.20;;;10.30;99.90;;;;;;4996746;28;20223;-91
2023/11/06 03:41:00;;;;;;;0.63;0.60;;;10.30;99.90;;;;;;5014578;28;20210;-90
2023/11/06 03:43:27;;;;;;;0.20;0.20;;;10.30;99.90;;;;;;5014647;28;20570;-91
2023/11/06 03:45:53;;;;;;;0.37;0.37;;;10.50;99.90;;;;;;4998048;28;20214;-90
2023/11/06 03:48:19;;;;;;;0.60;0.60;;;10.50;99.90;;;;;;5014652;28;20213;-90
2023/11/06 03:50:45;;;;;;;0.63;0.63;;;10.60;99.90;;;;;;5030213;28;20283;-90
2023/11/06 03:53:12;;;;;;;1.00;0.63;;;10.60;99.90;;;;;;5013912;28;20303;-91
2023/11/06 03:55:38;;;;;;;0.50;0.50;;;10.60;99.90;;;;;;5013679;28;20228;-90
2023/11/06 03:58:04;;;;;;;2.87;0.80;;;10.60;99.90;;;;;;4997642;28;20240;-90
2023/11/06 04:00:30;;;;;;;8.50;0.73;;;10.50;99.90;;;;;;4997112;28;20293;-90
2023/11/06 04:02:56;;;;;;;0.30;0.30;;;10.50;99.90;;;;;;5029531;28;21242;-90
2023/11/06 04:05:22;;;;;;;0.33;0.30;;;10.40;99.90;;;;;;4998076;28;20304;-90
2023/11/06 04:07:48;;;;;;;0.40;0.40;;;10.40;99.90;;;;;;4996999;28;20207;-90
2023/11/06 04:10:15;;;;;;;0.57;0.57;;;10.30;99.90;;;;;;5013917;28;20287;-90
2023/11/06 04:12:41;;;;;;;0.93;0.60;;;10.30;99.90;;;;;;4997435;28;20198;-90
2023/11/06 04:15:09;;;;;;;0.20;0.20;;;10.30;99.90;;;;;;5013650;28;20270;-90
2023/11/06 04:17:35;;;;;;;1.50;1.40;;;10.30;99.90;;;;;;5029891;28;20206;-90
2023/11/06 04:20:00;;;;;;;0.40;0.40;;;10.30;99.90;;;;;;5013817;28;20232;-91
2023/11/06 04:22:26;;;;;;;3.73;0.97;;;10.30;99.90;;;;;;5013236;28;20214;-91
2023/11/06 04:24:52;;;;;;;0.50;0.50;;;10.30;99.90;;;;;;4997344;28;20230;-90
2023/11/06 04:27:18;;;;;;;3.77;0.40;;;10.40;99.90;;;;;;5019550;28;20191;-90
2023/11/06 04:29:44;;;;;;;1.53;0.60;;;10.40;99.90;;;;;;4997206;28;21192;-90
2023/11/06 04:32:09;;;;;;;0.17;0.17;;;10.50;99.90;;;;;;4996069;28;20571;-90
2023/11/06 04:34:35;;;;;;;0.27;0.27;;;10.50;99.90;;;;;;4996299;28;20273;-90
2023/11/06 04:37:01;;;;;;;0.73;0.73;;;10.60;99.90;;;;;;4996725;28;20237;-90
2023/11/06 04:39:27;;;;;;;8.53;1.30;;;10.50;99.90;;;;;;4996028;28;20215;-90
2023/11/06 04:41:52;;;;;;;6.50;0.60;;;10.50;99.90;;;;;;5012117;28;20211;-90
2023/11/06 04:44:19;;;;;;;0.63;0.40;;;10.50;99.90;;;;;;5013268;28;20225;-90
2023/11/06 04:46:44;;;;;;;1.57;1.47;;;10.40;99.90;;;;;;4997074;28;20213;-90
2023/11/06 04:49:11;;;;;;;0.50;0.50;;;10.40;99.90;;;;;;4996017;28;20217;-90
2023/11/06 04:51:36;;;;;;;0.20;0.20;;;10.40;99.90;;;;;;4996885;28;20220;-91
2023/11/06 04:54:02;;;;;;;3.33;1.43;;;10.30;99.90;;;;;;4996748;28;20218;-90
2023/11/06 04:56:28;;;;;;;0.90;0.83;;;10.30;99.90;;;;;;4996956;28;20218;-90
2023/11/06 04:58:54;;;;;;;0.40;0.40;;;10.20;99.90;;;;;;4996340;28;20230;-90
2023/11/06 05:01:21;;;;;;;2.10;0.70;;;10.20;99.90;;;;;;4995866;28;20214;-91
2023/11/06 05:03:47;;;;;;;6.77;1.07;;;10.20;99.90;;;;;;5013387;28;20193;-91
2023/11/06 05:06:12;;;;;;;0.50;0.50;;;10.30;99.90;;;;;;5012757;28;20187;-90
2023/11/06 05:08:41;;;;;;;0.73;0.73;;;10.30;99.90;;;;;;4995401;28;20219;-90
2023/11/06 05:11:07;;;;;;;3.03;0.63;;;10.30;99.90;;;;;;4996323;28;20222;-90
2023/11/06 05:13:33;;;;;;;0.63;0.63;;;10.30;99.90;;;;;;4996716;28;20273;-90
2023/11/06 05:15:58;;;;;;;7.00;1.03;;;10.30;99.90;;;;;;4995009;28;20265;-90
2023/11/06 05:18:24;;;;;;;5.00;1.17;;;10.30;99.90;;;;;;5011233;28;20176;-90
2023/11/06 05:20:50;;;;;;;0.43;0.43;;;10.30;99.90;;;;;;4995777;28;20218;-90
2023/11/06 05:23:15;;;;;;;0.70;0.70;;;10.30;99.90;;;;;;4996626;28;20271;-90
2023/11/06 05:25:41;;;;;;;0.83;0.40;;;10.30;99.90;;;;;;5019683;28;20260;-91
2023/11/06 05:28:07;;;;;;;0.80;0.80;;;10.20;99.90;;;;;;5012404;28;20216;-90
2023/11/06 05:30:33;;;;;;;0.50;0.50;;;10.20;99.90;;;;;;5028260;28;20226;-90
2023/11/06 05:32:58;;;;;;;0.60;0.60;;;10.20;99.90;;;;;;4996031;28;20221;-90
2023/11/06 05:35:24;;;;;;;0.50;0.50;;;10.10;99.90;;;;;;4996693;28;20211;-90
2023/11/06 05:37:52;;;;;;;7.50;1.10;;;10.20;99.90;;;;;;5027562;28;20238;-90
2023/11/06 05:40:17;;;;;;;0.97;0.97;;;10.20;99.90;;;;;;5028265;28;20256;-90
2023/11/06 05:42:43;;;;;;;0.73;0.73;;;10.20;99.90;;;;;;5011663;28;20417;-90
2023/11/06 05:45:10;;;;;;;1.30;1.20;;;10.20;99.90;;;;;;5028786;28;20178;-90
2023/11/06 05:47:36;;;;;;;0.50;0.50;;;10.10;99.90;;;;;;5013015;28;20312;-90
2023/11/06 05:50:02;;;;;;;1.13;1.13;;;10.10;99.90;;;;;;5011630;28;20308;-90
2023/11/06 05:52:28;;;;;;;0.53;0.53;;;10.10;99.90;;;;;;5029918;28;20632;-90
2023/11/06 05:54:54;;;;;;;1.20;1.10;;;10.00;99.90;;;;;;4995107;28;20306;-90
2023/11/06 05:57:20;;;;;;;1.37;0.90;;;10.00;99.90;;;;;;4997471;28;20204;-90
2023/11/06 05:59:45;;;;;;;0.43;0.43;;;10.00;99.90;;;;;;4994706;28;20219;-90
2023/11/06 06:02:11;;;;;;;1.67;1.27;;;10.00;99.90;;;;;;5012299;28;20228;-90
2023/11/06 06:04:40;;;;;;;0.50;0.50;;;10.00;99.90;;;;;;5011702;28;20216;-90
2023/11/06 06:07:07;;;;;;;1.33;0.73;;;10.00;99.90;;;;;;5010665;28;20229;-90
2023/11/06 06:09:32;;;;;;;1.63;1.43;;;9.90;99.90;;;;;;5012758;28;20218;-90
2023/11/06 06:12:01;;;;;;;1.10;1.07;;;9.90;99.90;;;;;;5011243;28;20237;-91
2023/11/06 06:14:27;;;;;;;8.07;1.10;;;10.00;99.90;;;;;;5013228;28;20214;-90
2023/11/06 06:16:53;;;;;;;3.80;2.00;;;10.00;99.90;;;;;;4995387;28;20265;-90
2023/11/06 06:19:19;;;;;;;1.83;0.77;;;9.90;99.90;;;;;;4995240;28;20227;-91
2023/11/06 06:21:45;;;;;;;1.27;0.53;;;10.00;99.90;;;;;;5028098;28;20185;-91
2023/11/06 06:24:12;;;;;;;0.63;0.63;;;10.00;99.90;;;;;;5013580;28;20345;-91
2023/11/06 06:26:38;;;;;;;0.83;0.83;;;10.10;99.90;;;;;;5014493;28;20246;-90
2023/11/06 06:29:04;;;;;;;6.97;0.73;;;10.20;99.90;;;;;;5015167;28;20276;-90
2023/11/06 06:31:30;;;;;;;0.53;0.53;;;10.10;99.90;;;;;;5015801;28;20279;-90
2023/11/06 06:33:56;;;;;;;2.03;0.53;;;10.20;99.90;;;;;;5014006;28;20242;-90
2023/11/06 06:36:23;;;;;;;1.20;1.10;;;10.20;99.90;;;;;;5031662;28;20179;-90
2023/11/06 06:38:50;;;;;;;2.07;1.90;;;10.20;99.90;;;;;;5015602;28;20706;-90
2023/11/06 06:41:16;;;;;;;1.73;1.03;;;10.20;99.90;;;;;;5031990;28;20754;-90
2023/11/06 06:43:42;;;;;;;1.10;1.10;;;10.10;99.90;;;;;;5014593;28;20218;-90
2023/11/06 06:46:08;;;;;;;0.60;0.53;;;10.10;99.90;;;;;;5032057;28;20275;-90
2023/11/06 06:48:34;;;;;;;0.97;0.87;;;10.10;99.90;;;;;;4998755;28;20225;-90
2023/11/06 06:50:59;;;;;;;1.17;0.83;;;10.20;99.90;;;;;;5015978;28;20651;-90
2023/11/06 06:53:28;;;;;;;1.17;0.43;;;10.10;99.90;;;;;;5015423;28;20206;-90
2023/11/06 06:55:54;;;;;;;0.30;0.30;;;10.10;99.90;;;;;;4997480;28;20214;-90
2023/11/06 06:58:23;;;;;;;0.50;0.50;;;10.10;99.90;;;;;;4994915;28;20223;-89
2023/11/06 07:00:49;;;;;;;3.03;0.27;;;10.20;99.90;;;;;;5015345;28;20232;-92
2023/11/06 07:03:15;;;;;;;1.07;0.87;;;10.20;99.90;;;;;;4999467;28;20717;-91
2023/11/06 07:05:41;;;;;;;1.23;0.73;;;10.30;99.90;;;;;;5031938;28;20217;-91
2023/11/06 07:08:08;;;;;;;0.50;0.50;;;10.30;99.90;;;;;;5013483;28;20242;-91
2023/11/06 07:10:34;;;;;;;0.63;0.63;;;10.30;99.90;;;;;;5018695;28;20222;-93
2023/11/06 07:13:00;;;;;;;0.17;0.17;;;10.30;99.90;;;;;;5031660;28;20279;-89
2023/11/06 07:15:28;;;;;;;0.53;0.40;;;10.30;99.90;;;;;;5016346;28;20191;-90
2023/11/06 07:17:56;;;;;;;4.47;0.90;;;10.40;99.90;;;;;;4996645;28;20313;-89
2023/11/06 07:20:23;;;;;;;0.40;0.30;;;10.40;99.90;;;;;;5028396;28;20227;-89
2023/11/06 07:22:49;;;;;;;0.40;0.40;;;10.50;99.90;;;;;;5012397;28;20230;-90
2023/11/06 07:25:16;;;;;;;0.20;0.20;;;10.50;99.90;;;;;;4998377;28;20230;-89
2023/11/06 07:27:43;;;;;;;0.20;0.20;;;10.50;99.90;;;;;;5030899;28;20193;-90
2023/11/06 07:30:11;;;;;;;0.13;0.13;;;10.50;99.90;;;;;;5014427;28;20714;-89
2023/11/06 07:32:36;;;;;;;0.30;0.30;;;10.60;99.90;;;;;;5012596;28;20314;-90
2023/11/06 07:35:03;;;;;;;0.10;0.10;;;10.50;99.90;;;;;;4996138;28;20766;-88
2023/11/06 07:37:30;;;;;;;0.10;0.10;;;10.50;99.90;;;;;;5011581;28;20255;-89
2023/11/06 07:39:56;;;;;;;0.20;0.20;;;10.50;99.90;;;;;;4997665;28;20229;-90
2023/11/06 07:42:22;;;;;;;1.13;1.00;;;10.50;99.90;;;;;;4998127;28;20189;-90
2023/11/06 07:44:48;;;;;;;0.20;0.20;;;10.50;99.90;;;;;;5021011;28;20228;-91
2023/11/06 07:47:14;;;;;;;0.30;0.30;;;10.40;99.90;;;;;;4997151;28;20226;-91
2023/11/06 07:49:40;;;;;;;0.00;0.00;;;10.40;99.90;;;;;;5013345;28;20279;-90
2023/11/06 07:52:09;;;;;;;0.20;0.20;;;10.40;99.90;;;;;;5024339;28;20222;-91
2023/11/06 07:54:40;;;;;;;0.20;0.20;;;10.40;99.90;;;;;;5014386;28;20206;-90
2023/11/06 07:57:06;;;;;;;0.63;0.63;;;10.40;99.90;;;;;;5013368;28;20297;-91
2023/11/06 07:59:31;;;;;;;0.33;0.33;;;10.40;99.90;;;;;;5021826;28;20313;-91
2023/11/06 08:01:59;;;;;;;0.40;0.40;;;10.40;99.90;;;;;;4998100;28;20207;-92
2023/11/06 08:04:25;;;;;;;3.90;1.07;;;10.40;99.90;;;;;;5032644;28;20239;-93
2023/11/06 08:06:51;;;;;;;0.43;0.43;;;10.40;99.90;;;;;;5030734;28;20191;-92
2023/11/06 08:09:17;;;;;;;0.70;0.70;;;10.40;99.90;;;;;;4998664;28;20248;-91
2023/11/06 08:11:43;;;;;;;0.50;0.40;;;10.40;99.90;;;;;;5030175;28;20214;-89
2023/11/06 08:14:08;;;;;;;0.57;0.57;;;10.40;99.90;;;;;;4996659;28;20298;-90
2023/11/06 08:16:35;;;;;;;1.03;1.03;;;10.40;99.90;;;;;;4996861;28;20238;-89
2023/11/06 08:19:01;;;;;;;2.37;0.63;;;10.50;99.90;;;;;;5029224;28;20229;-89
2023/11/06 08:21:26;;;;;;;0.40;0.40;;;10.50;99.90;;;;;;5012056;28;20183;-90
2023/11/06 08:23:52;;;;;;;7.30;0.97;;;10.50;99.90;;;;;;4996696;28;20217;-92
2023/11/06 08:26:20;;;;;;;0.30;0.30;;;10.50;99.90;;;;;;5048254;28;20283;-93
2023/11/06 08:28:46;;;;;;;0.40;0.40;;;10.50;99.90;;;;;;4997703;28;20585;-91
2023/11/06 08:31:16;;;;;;;0.10;0.10;;;10.50;99.90;;;;;;5029153;28;20276;-91
2023/11/06 08:33:42;;;;;;;4.30;0.77;;;10.50;99.90;;;;;;5015754;28;20728;-90
2023/11/06 08:36:08;;;;;;;0.53;0.53;;;10.40;99.90;;;;;;5014304;28;20269;-90
2023/11/06 08:38:34;;;;;;;0.30;0.30;;;10.50;99.90;;;;;;5013326;28;20222;-90
2023/11/06 08:40:59;;;;;;;0.20;0.20;;;10.40;99.90;;;;;;5012268;28;20288;-90
2023/11/06 08:43:25;;;;;;;0.30;0.30;;;10.40;99.90;;;;;;5012519;28;20218;-90
2023/11/06 08:45:51;;;;;;;0.63;0.43;;;10.40;99.90;;;;;;4996997;28;20181;-89
2023/11/06 08:48:17;;;;;;;0.50;0.50;;;10.50;99.90;;;;;;4997051;28;20178;-90
2023/11/06 08:50:43;;;;;;;3.90;0.47;;;10.50;99.90;;;;;;5012036;28;20233;-91
2023/11/06 08:53:09;;;;;;;0.30;0.30;;;10.60;99.90;;;;;;5014092;28;20210;-91
2023/11/06 08:55:34;;;;;;;0.53;0.53;;;10.60;99.90;;;;;;5014248;28;20690;-89
2023/11/06 08:58:00;;;;;;;0.67;0.67;;;10.60;99.90;;;;;;4997090;28;20217;-90
2023/11/06 09:00:31;;;;;;;1.33;0.33;;;10.60;99.90;;;;;;5038398;28;20305;-90
2023/11/06 09:02:56;;;;;;;0.27;0.27;;;10.60;99.90;;;;;;4997841;28;20198;-89
2023/11/06 09:05:22;;;;;;;10.23;0.37;;;10.60;99.90;;;;;;5021022;28;20301;-89
2023/11/06 09:07:48;;;;;;;0.30;0.30;;;10.60;99.90;;;;;;5028812;28;20213;-89
2023/11/06 09:10:17;;;;;;;0.53;0.53;;;10.70;99.90;;;;;;5027462;28;20218;-89
2023/11/06 09:12:43;;;;;;;0.50;0.50;;;10.60;99.90;;;;;;4996695;28;20197;-89
2023/11/06 09:15:10;;;;;;;0.70;0.60;;;10.70;99.90;;;;;;5010874;28;20174;-89
2023/11/06 09:17:35;;;;;;;0.63;0.63;;;10.70;99.90;;;;;;4997213;28;20206;-89
2023/11/06 09:20:03;;;;;;;0.50;0.50;;;10.70;99.90;;;;;;5020658;28;20218;-90
2023/11/06 09:22:29;;;;;;;0.73;0.60;;;10.80;99.90;;;;;;5011954;28;20643;-90
2023/11/06 09:24:54;;;;;;;1.80;1.17;;;10.80;99.90;;;;;;5011657;28;20293;-90
2023/11/06 09:27:20;;;;;;;0.60;0.60;;;10.90;99.90;;;;;;4996751;28;20190;-90
2023/11/06 09:29:46;;;;;;;10.30;0.70;;;11.10;99.90;;;;;;5029002;28;20226;-89
2023/11/06 09:32:12;;;;;;;1.17;0.90;;;11.20;99.90;;;;;;4994930;28;20211;-90
2023/11/06 09:34:38;;;;;;;0.80;0.80;;;11.40;99.90;;;;;;4996693;28;20210;-90
2023/11/06 09:37:04;;;;;;;0.40;0.40;;;11.50;99.90;;;;;;4995042;28;20313;-90
2023/11/06 09:39:31;;;;;;;1.80;1.70;;;11.60;99.90;;;;;;4997783;28;20198;-90
2023/11/06 09:41:57;;;;;;;1.53;1.43;;;11.80;99.90;;;;;;5026548;28;20213;-90
2023/11/06 09:44:23;;;;;;;2.53;1.13;;;11.90;99.90;;;;;;4995853;28;20218;-90
2023/11/06 09:46:50;;;;;;;1.07;0.40;;;11.90;99.90;;;;;;5011713;28;20206;-89
2023/11/06 09:49:26;;;;;;;1.03;1.03;;;11.90;99.90;;;;;;5029109;28;20831;-90
2023/11/06 09:51:52;;;;;;;0.67;0.67;;;11.90;99.90;;;;;;5034472;28;20698;-89
2023/11/06 09:54:24;;;;;;;0.40;0.40;;;11.80;99.90;;;;;;5011683;28;20187;-89
2023/11/06 09:56:50;;;;;;;0.63;0.40;;;11.70;99.90;;;;;;5029664;28;20212;-90
2023/11/06 09:59:18;;;;;;;2.33;0.97;;;11.60;99.90;;;;;;5013549;28;20237;-90
2023/11/06 10:01:44;;;;;;;0.20;0.20;;;11.50;99.90;;;;;;4999879;28;20222;-89
2023/11/06 10:04:10;;;;;;;0.47;0.47;;;11.40;99.90;;;;;;4998099;28;20298;-89
2023/11/06 10:06:37;;;;;;;0.53;0.53;;;11.30;99.90;;;;;;5016034;28;20261;-91
2023/11/06 10:09:23;;;;;;;0.40;0.40;;;11.30;99.90;;;;;;5016963;28;20186;-90
2023/11/06 10:11:50;;;;;;;0.30;0.30;;;11.20;99.90;;;;;;5032567;28;20239;-90
2023/11/06 10:14:16;;;;;;;0.33;0.33;;;11.20;99.90;;;;;;5031207;28;20241;-90
2023/11/06 10:16:42;;;;;;;0.83;0.83;;;11.20;99.90;;;;;;4999589;28;20231;-90
2023/11/06 10:19:13;;;;;;;0.93;0.40;;;11.10;99.90;;;;;;5031948;28;20234;-90
2023/11/06 10:21:43;;;;;;;0.87;0.80;;;11.20;99.90;;;;;;5031505;28;20688;-90
2023/11/06 10:24:13;;;;;;;0.33;0.33;;;11.30;99.90;;;;;;5031585;28;20189;-89
2023/11/06 10:26:39;;;;;;;0.43;0.43;;;11.30;99.90;;;;;;5031604;28;20261;-90
2023/11/06 10:29:16;;;;;;;3.30;0.40;;;11.30;99.90;;;;;;5015563;28;20230;-89
2023/11/06 10:31:48;;;;;;;0.43;0.43;;;11.30;99.90;;;;;;5033017;28;20210;-89
2023/11/06 10:34:31;;;;;;;0.93;0.77;;;11.40;99.90;;;;;;5022939;28;20710;-90
2023/11/06 10:37:13;;;;;;;0.53;0.50;;;11.50;99.90;;;;;;5036319;28;20205;-90
2023/11/06 10:39:40;;;;;;;1.40;1.30;;;11.50;99.90;;;;;;5030498;28;20194;-90
2023/11/06 10:42:09;;;;;;;1.57;1.00;;;11.50;99.90;;;;;;5031694;28;20643;-90
2023/11/06 10:44:36;;;;;;;0.20;0.20;;;11.50;99.90;;;;;;5014944;28;20238;-91
2023/11/06 10:47:08;;;;;;;0.20;0.20;;;11.40;99.90;;;;;;5030985;28;20297;-91
2023/11/06 10:49:47;;;;;;;1.70;0.93;;;11.40;99.90;;;;;;5031833;28;20202;-91
2023/11/06 10:52:13;;;;;;;0.70;0.70;;;11.40;99.90;;;;;;5014903;28;20220;-92
2023/11/06 10:54:40;;;;;;;0.50;0.50;;;11.40;99.90;;;;;;5016843;28;20247;-91
2023/11/06 10:57:07;;;;;;;0.20;0.20;;;11.30;99.90;;;;;;5032519;28;20522;-94
2023/11/06 10:59:34;;;;;;;1.00;0.93;;;11.20;99.90;;;;;;4999486;28;20939;-92
2023/11/06 11:02:02;;;;;;;0.60;0.60;;;11.20;99.90;;;;;;5031690;28;20210;-90
2023/11/06 11:04:29;;;;;;;1.53;1.53;;;11.20;99.90;;;;;;5030576;28;20211;-90
2023/11/06 11:06:58;;;;;;;1.23;0.60;;;11.20;99.90;;;;;;5014926;28;20724;-90
2023/11/06 11:09:24;;;;;;;3.40;0.63;;;11.20;99.90;;;;;;5031041;28;20217;-90
2023/11/06 11:11:51;;;;;;;0.47;0.43;;;11.30;99.90;;;;;;5030788;28;20284;-89
2023/11/06 11:14:17;;;;;;;1.93;0.57;;;11.40;99.90;;;;;;5032067;28;20214;-91
2023/11/06 11:16:50;;;;;;;2.07;0.80;;;11.40;99.90;;;;;;5015853;28;20596;-91
2023/11/06 11:19:23;;;;;;;1.20;1.03;;;11.40;99.90;;;;;;5014254;28;20230;-90
2023/11/06 11:22:09;;;;;;;0.33;0.33;;;11.50;99.90;;;;;;5030281;28;20206;-90
2023/11/06 11:24:41;;;;;;;0.50;0.50;;;11.60;99.90;;;;;;5015033;28;20182;-91
2023/11/06 11:27:07;;;;;;;0.60;0.60;;;11.60;99.90;;;;;;5031287;28;20197;-89
2023/11/06 11:29:56;;;;;;;0.60;0.60;;;11.70;99.90;;;;;;5034588;28;20235;-89
2023/11/06 11:32:33;;;;;;;1.07;1.07;;;11.70;99.90;;;;;;5047717;28;20279;-89
2023/11/06 11:35:20;;;;;;;1.43;1.33;;;11.70;99.90;;;;;;5030267;28;20206;-89
2023/11/06 11:37:53;;;;;;;1.67;0.77;;;11.60;99.90;;;;;;5047193;28;21100;-89
2023/11/06 11:40:19;;;;;;;1.33;0.57;;;11.60;99.90;;;;;;5031688;28;20325;-91
2023/11/06 11:42:45;;;;;;;0.60;0.60;;;11.60;99.90;;;;;;5013374;28;20280;-91
2023/11/06 11:45:29;;;;;;;1.47;1.37;;;11.60;99.90;;;;;;5014523;28;20219;-90
2023/11/06 11:47:55;;;;;;;0.67;0.67;;;11.80;99.90;;;;;;5030620;28;20621;-89
2023/11/06 11:50:27;;;;;;;0.63;0.60;;;11.80;99.90;;;;;;5012945;28;20219;-89
2023/11/06 11:52:56;;;;;;;0.20;0.20;;;11.70;99.90;;;;;;5037637;28;20215;-89
2023/11/06 11:55:39;;;;;;;0.77;0.73;;;11.70;99.90;;;;;;4997815;28;20237;-89
2023/11/06 11:58:10;;;;;;;0.63;0.63;;;11.80;99.90;;;;;;5029069;28;20293;-89
2023/11/06 12:00:38;;;;;;;0.93;0.53;;;11.80;99.90;;;;;;5011754;28;20198;-88
2023/11/06 12:03:10;;;;;;;0.80;0.73;;;11.90;99.90;;;;;;5031913;28;20186;-90
2023/11/06 12:05:37;;;;;;;1.07;0.90;;;11.90;99.90;;;;;;5028818;28;20674;-90
2023/11/06 12:08:20;;;;;;;0.50;0.50;;;11.80;99.90;;;;;;5013302;28;20238;-89
2023/11/06 12:10:48;;;;;;;0.50;0.40;;;11.80;99.90;;;;;;5028287;28;20210;-90
2023/11/06 12:13:23;;;;;;;0.27;0.27;;;11.90;99.90;;;;;;5029950;28;20621;-89
2023/11/06 12:15:51;;;;;;;0.30;0.30;;;11.90;99.90;;;;;;5029354;28;20919;-89
2023/11/06 12:18:22;;;;;;;0.30;0.30;;;11.80;99.90;;;;;;5029890;28;20187;-89
2023/11/06 12:20:54;;;;;;;6.13;0.83;;;12.00;99.90;;;;;;5035148;28;20214;-88
2023/11/06 12:23:32;;;;;;;2.40;0.63;;;12.40;99.90;;;;;;5044325;28;20218;-90
2023/11/06 12:26:09;;;;;;;3.77;0.50;;;12.70;99.90;;;;;;5044879;28;20264;-91
2023/11/06 12:28:42;;;;;;;1.40;1.30;;;12.80;99.90;;;;;;5045436;28;20686;-92
2023/11/06 12:31:08;;;;;;;3.37;0.90;;;12.70;99.90;;;;;;4996929;28;20219;-90
2023/11/06 12:33:34;;;;;;;0.53;0.50;;;12.50;99.90;;;;;;4999922;28;20199;-90
2023/11/06 12:36:00;;;;;;;1.00;0.50;;;12.30;99.90;;;;;;5000795;28;20643;-89
2023/11/06 12:38:52;;;;;;;3.10;1.10;;;12.20;99.90;;;;;;5000887;28;20248;-89
2023/11/06 12:41:31;;;;;;;0.80;0.50;;;12.10;99.90;;;;;;4978865;28;20226;-89
2023/11/06 12:44:00;;;;;;;0.73;0.70;;;12.10;99.90;;;;;;4996839;28;20684;-89
2023/11/06 12:46:48;;;;;;;0.30;0.30;;;12.10;99.90;;;;;;5010508;28;20274;-95
2023/11/06 12:49:16;;;;;;;0.43;0.30;;;12.20;99.90;;;;;;4976813;28;20215;-89